Time;durP1;ratioP1;P1;durP2;ratioP2;P2;SDS_P1;SDS_P2;PMS_P1;PMS_P2;Temp;Humidity;BMP_temperature;BMP_pressure;BME280_temperature;BME280_humidity;BME280_pressure;Samples;Min_cycle;Max_cycle;Signal;HPM_P1;HPM_P2
2021/07/29 00:01:57;;;;;;;4.90;2.53;;;;;;;;;;4970551;28;20485;-72
2021/07/29 00:04:22;;;;;;;4.00;2.60;;;;;;;;;;4972393;28;20056;-72
2021/07/29 00:06:48;;;;;;;5.03;2.63;;;;;;;;;;4971024;28;20030;-72
2021/07/29 00:09:13;;;;;;;4.63;2.38;;;;;;;;;;4971685;28;20031;-72
2021/07/29 00:11:39;;;;;;;5.90;2.63;;;;;;;;;;4972213;28;20035;-72
2021/07/29 00:14:04;;;;;;;8.48;2.65;;;;;;;;;;4970427;28;20030;-71
2021/07/29 00:16:32;;;;;;;4.13;2.60;;;;;;;;;;4969778;28;20027;-73
2021/07/29 00:19:05;;;;;;;5.03;2.58;;;;;;;;;;4975014;28;20093;-72
2021/07/29 00:21:32;;;;;;;4.32;2.70;;;;;;;;;;4970240;28;20034;-72
2021/07/29 00:23:57;;;;;;;4.40;2.47;;;;;;;;;;4967531;28;20400;-72
2021/07/29 00:26:22;;;;;;;5.22;2.80;;;;;;;;;;4967655;28;20477;-72
2021/07/29 00:28:50;;;;;;;3.78;2.10;;;;;;;;;;4970822;28;20487;-72
2021/07/29 00:31:15;;;;;;;3.85;2.30;;;;;;;;;;4954369;28;20089;-72
2021/07/29 00:33:41;;;;;;;6.85;2.60;;;;;;;;;;4969983;28;20039;-72
2021/07/29 00:36:06;;;;;;;9.23;2.92;;;;;;;;;;4952703;28;20027;-71
2021/07/29 00:38:34;;;;;;;4.55;2.63;;;;;;;;;;4972764;28;20041;-72
2021/07/29 00:41:02;;;;;;;4.00;2.70;;;;;;;;;;4953086;28;20030;-71
2021/07/29 00:43:29;;;;;;;6.97;2.95;;;;;;;;;;4972088;28;20101;-72
2021/07/29 00:45:59;;;;;;;6.78;2.78;;;;;;;;;;4972025;28;20455;-72
2021/07/29 00:48:24;;;;;;;6.18;2.70;;;;;;;;;;4953568;28;20472;-72
2021/07/29 00:50:50;;;;;;;5.32;2.50;;;;;;;;;;4950846;28;20037;-72
2021/07/29 00:53:16;;;;;;;6.38;2.60;;;;;;;;;;4970966;28;20054;-72
2021/07/29 00:55:41;;;;;;;7.47;2.65;;;;;;;;;;4971957;28;20041;-71
2021/07/29 00:58:06;;;;;;;4.32;2.75;;;;;;;;;;4950461;28;20030;-72
2021/07/29 01:00:32;;;;;;;6.85;3.00;;;;;;;;;;4967081;28;20027;-72
2021/07/29 01:02:57;;;;;;;5.88;2.85;;;;;;;;;;4970701;28;20057;-72
2021/07/29 01:05:23;;;;;;;6.28;2.83;;;;;;;;;;4968135;28;20142;-72
2021/07/29 01:07:48;;;;;;;4.80;2.90;;;;;;;;;;4952476;28;20054;-72
2021/07/29 01:10:14;;;;;;;4.97;2.60;;;;;;;;;;4970719;28;20034;-72
2021/07/29 01:12:39;;;;;;;5.50;2.53;;;;;;;;;;4968569;28;20046;-71
2021/07/29 01:15:05;;;;;;;5.05;2.50;;;;;;;;;;4969358;28;20026;-72
2021/07/29 01:17:32;;;;;;;4.88;2.70;;;;;;;;;;4951940;28;20045;-72
2021/07/29 01:19:57;;;;;;;;;;;;;;;;;;4970251;28;20066;-71
2021/07/29 01:22:32;;;;;;;4.18;2.15;;;;;;;;;;4953124;28;19914;-71
2021/07/29 01:24:57;;;;;;;5.88;2.33;;;;;;;;;;4951246;28;20046;-71
2021/07/29 01:27:22;;;;;;;4.43;2.40;;;;;;;;;;4954912;28;20058;-71
2021/07/29 01:29:48;;;;;;;5.65;2.80;;;;;;;;;;4972724;28;20442;-71
2021/07/29 01:32:13;;;;;;;4.85;2.70;;;;;;;;;;4978534;28;20114;-71
2021/07/29 01:34:39;;;;;;;5.15;2.35;;;;;;;;;;4977182;28;20129;-71
2021/07/29 01:37:04;;;;;;;6.05;2.58;;;;;;;;;;4958046;28;20054;-71
2021/07/29 01:39:29;;;;;;;4.25;2.60;;;;;;;;;;4957436;28;20490;-71
2021/07/29 01:41:55;;;;;;;5.47;2.78;;;;;;;;;;4973162;28;20042;-71
2021/07/29 01:44:20;;;;;;;4.70;2.50;;;;;;;;;;4970788;28;20344;-71
2021/07/29 01:46:46;;;;;;;4.38;2.40;;;;;;;;;;4952647;28;20372;-71
2021/07/29 01:49:19;;;;;;;4.43;2.80;;;;;;;;;;4973465;28;20085;-71
2021/07/29 01:51:44;;;;;;;6.28;2.45;;;;;;;;;;4956494;28;20044;-71
2021/07/29 01:54:10;;;;;;;4.85;2.60;;;;;;;;;;4956554;28;20039;-72
2021/07/29 01:56:35;;;;;;;4.07;2.20;;;;;;;;;;4955702;28;20467;-71
2021/07/29 01:59:06;;;;;;;4.47;2.40;;;;;;;;;;4970463;28;20034;-71
2021/07/29 02:01:31;;;;;;;6.13;2.70;;;;;;;;;;4973249;28;20153;-71
2021/07/29 02:03:59;;;;;;;4.30;2.70;;;;;;;;;;4972571;28;20118;-71
2021/07/29 02:06:26;;;;;;;7.28;2.63;;;;;;;;;;4972033;28;20038;-71
2021/07/29 02:08:52;;;;;;;5.57;3.00;;;;;;;;;;4973038;28;20149;-71
2021/07/29 02:11:17;;;;;;;3.80;2.50;;;;;;;;;;4959302;28;20161;-71
2021/07/29 02:13:42;;;;;;;5.85;2.78;;;;;;;;;;4957621;28;20038;-72
2021/07/29 02:16:09;;;;;;;6.38;2.80;;;;;;;;;;4975788;28;20035;-71
2021/07/29 02:18:34;;;;;;;5.28;3.03;;;;;;;;;;4957046;28;20389;-71
2021/07/29 02:21:00;;;;;;;4.28;2.75;;;;;;;;;;4957017;28;20441;-72
2021/07/29 02:23:25;;;;;;;5.90;2.60;;;;;;;;;;4972266;28;20034;-71
2021/07/29 02:25:50;;;;;;;4.30;2.63;;;;;;;;;;4971186;28;20047;-72
2021/07/29 02:28:16;;;;;;;4.60;2.60;;;;;;;;;;4976077;28;20042;-72
2021/07/29 02:30:41;;;;;;;4.75;2.42;;;;;;;;;;4972348;28;20476;-72
2021/07/29 02:33:09;;;;;;;4.55;2.35;;;;;;;;;;4958063;28;20040;-71
2021/07/29 02:35:35;;;;;;;4.65;2.55;;;;;;;;;;4975770;28;20117;-71
2021/07/29 02:38:00;;;;;;;4.50;2.60;;;;;;;;;;4973155;28;20424;-72
2021/07/29 02:40:26;;;;;;;5.65;2.33;;;;;;;;;;4973647;28;20479;-72
2021/07/29 02:42:54;;;;;;;5.65;2.80;;;;;;;;;;4954196;28;20120;-72
2021/07/29 02:45:19;;;;;;;4.75;2.80;;;;;;;;;;4959797;28;20042;-71
2021/07/29 02:47:44;;;;;;;6.15;2.90;;;;;;;;;;4976598;28;20033;-71
2021/07/29 02:50:10;;;;;;;5.15;2.90;;;;;;;;;;4975979;28;20038;-71
2021/07/29 02:52:35;;;;;;;4.93;2.72;;;;;;;;;;4980093;28;20535;-71
2021/07/29 02:55:00;;;;;;;6.35;2.80;;;;;;;;;;4981376;28;20030;-71
2021/07/29 02:57:26;;;;;;;5.55;2.88;;;;;;;;;;4977603;28;20047;-72
2021/07/29 02:59:51;;;;;;;5.45;2.72;;;;;;;;;;4976365;28;20027;-72
2021/07/29 03:02:16;;;;;;;4.70;3.00;;;;;;;;;;4974816;28;20380;-72
2021/07/29 03:04:42;;;;;;;6.35;2.85;;;;;;;;;;4974683;28;20408;-71
2021/07/29 03:07:09;;;;;;;5.18;2.80;;;;;;;;;;4976426;28;20030;-72
2021/07/29 03:09:35;;;;;;;7.75;2.58;;;;;;;;;;4973970;28;20039;-72
2021/07/29 03:12:00;;;;;;;4.43;2.60;;;;;;;;;;4977240;28;20038;-71
2021/07/29 03:14:26;;;;;;;4.45;2.65;;;;;;;;;;4959239;28;20046;-71
2021/07/29 03:16:52;;;;;;;4.47;2.60;;;;;;;;;;4978047;28;20078;-72
2021/07/29 03:19:18;;;;;;;5.18;3.03;;;;;;;;;;4975786;28;20046;-72
2021/07/29 03:21:45;;;;;;;5.40;2.85;;;;;;;;;;4974672;28;20030;-72
2021/07/29 03:24:11;;;;;;;4.25;2.67;;;;;;;;;;4974455;28;20499;-72
2021/07/29 03:26:36;;;;;;;5.53;2.80;;;;;;;;;;4975087;28;20033;-72
2021/07/29 03:29:01;;;;;;;4.75;2.70;;;;;;;;;;4955276;28;20113;-71
2021/07/29 03:31:27;;;;;;;4.40;2.70;;;;;;;;;;4975916;28;20376;-72
2021/07/29 03:33:52;;;;;;;4.53;2.88;;;;;;;;;;4958218;28;20276;-72
2021/07/29 03:36:17;;;;;;;4.15;2.63;;;;;;;;;;4973264;28;20039;-72
2021/07/29 03:38:43;;;;;;;5.22;2.83;;;;;;;;;;4961108;28;20062;-72
2021/07/29 03:41:10;;;;;;;4.90;2.72;;;;;;;;;;4957416;28;20035;-72
2021/07/29 03:43:35;;;;;;;4.57;2.90;;;;;;;;;;4979840;28;20351;-71
2021/07/29 03:46:00;;;;;;;6.57;2.83;;;;;;;;;;4960920;28;20034;-72
2021/07/29 03:48:26;;;;;;;6.93;3.15;;;;;;;;;;4959835;28;20034;-72
2021/07/29 03:50:51;;;;;;;5.00;3.08;;;;;;;;;;4959724;28;20042;-71
2021/07/29 03:53:16;;;;;;;5.60;3.10;;;;;;;;;;4975303;28;20055;-71
2021/07/29 03:55:43;;;;;;;7.50;2.85;;;;;;;;;;4955516;28;20122;-72
2021/07/29 03:58:09;;;;;;;5.25;2.70;;;;;;;;;;4961798;28;20038;-72
2021/07/29 04:00:34;;;;;;;5.82;2.80;;;;;;;;;;4940179;28;20360;-71
2021/07/29 04:03:00;;;;;;;6.47;2.95;;;;;;;;;;4941347;28;20032;-72
2021/07/29 04:05:25;;;;;;;4.72;2.60;;;;;;;;;;4972178;28;20614;-72
2021/07/29 04:07:53;;;;;;;5.35;2.80;;;;;;;;;;4971873;28;20491;-71
2021/07/29 04:10:18;;;;;;;5.93;2.45;;;;;;;;;;4972020;28;20027;-71
2021/07/29 04:12:44;;;;;;;4.38;2.70;;;;;;;;;;4981845;28;20037;-71
2021/07/29 04:15:11;;;;;;;6.47;2.70;;;;;;;;;;4955271;28;20043;-71
2021/07/29 04:17:38;;;;;;;6.53;3.10;;;;;;;;;;4973612;28;20752;-71
2021/07/29 04:20:04;;;;;;;6.97;3.00;;;;;;;;;;4973780;28;20026;-72
2021/07/29 04:22:30;;;;;;;5.20;3.07;;;;;;;;;;4954801;28;20052;-72
2021/07/29 04:24:55;;;;;;;6.60;3.13;;;;;;;;;;4969645;28;20411;-72
2021/07/29 04:27:21;;;;;;;5.03;2.95;;;;;;;;;;4972726;28;20145;-72
2021/07/29 04:29:46;;;;;;;7.07;2.78;;;;;;;;;;4975885;28;20116;-72
2021/07/29 04:32:12;;;;;;;4.63;2.83;;;;;;;;;;4975463;28;20102;-71
2021/07/29 04:34:39;;;;;;;6.45;2.85;;;;;;;;;;4975088;28;20415;-72
2021/07/29 04:37:04;;;;;;;5.63;3.03;;;;;;;;;;4972417;28;20035;-72
2021/07/29 04:39:30;;;;;;;4.70;3.10;;;;;;;;;;4953563;28;20038;-72
2021/07/29 04:41:55;;;;;;;6.07;2.80;;;;;;;;;;4973470;28;20852;-72
2021/07/29 04:44:21;;;;;;;8.38;3.22;;;;;;;;;;4961644;28;20448;-72
2021/07/29 04:46:46;;;;;;;5.10;2.92;;;;;;;;;;4975315;28;20061;-72
2021/07/29 04:49:12;;;;;;;6.13;2.78;;;;;;;;;;4957496;28;20875;-72
2021/07/29 04:51:37;;;;;;;4.43;3.10;;;;;;;;;;4974940;28;20030;-72
2021/07/29 04:54:03;;;;;;;5.22;2.85;;;;;;;;;;4970116;28;20034;-72
2021/07/29 04:56:31;;;;;;;5.45;3.15;;;;;;;;;;4970673;28;20068;-72
2021/07/29 04:58:56;;;;;;;5.93;3.20;;;;;;;;;;4971367;28;20510;-72
2021/07/29 05:01:22;;;;;;;7.13;3.22;;;;;;;;;;4975488;28;20031;-71
2021/07/29 05:03:47;;;;;;;8.20;3.65;;;;;;;;;;4972856;28;20037;-72
2021/07/29 05:06:13;;;;;;;5.07;3.15;;;;;;;;;;4971882;28;20694;-72
2021/07/29 05:08:41;;;;;;;5.07;3.05;;;;;;;;;;4970983;28;20046;-72
2021/07/29 05:11:10;;;;;;;8.60;3.70;;;;;;;;;;4956223;28;20473;-72
2021/07/29 05:13:36;;;;;;;5.53;3.42;;;;;;;;;;4976569;28;20022;-72
2021/07/29 05:16:08;;;;;;;6.60;3.53;;;;;;;;;;4956525;28;20038;-71
2021/07/29 05:18:34;;;;;;;7.57;3.80;;;;;;;;;;4950701;28;20070;-71
2021/07/29 05:21:05;;;;;;;6.30;3.50;;;;;;;;;;4977498;28;20548;-72
2021/07/29 05:23:31;;;;;;;8.70;3.25;;;;;;;;;;4972703;28;20038;-72
2021/07/29 05:25:57;;;;;;;4.93;3.10;;;;;;;;;;4971935;28;20141;-71
2021/07/29 05:28:25;;;;;;;6.65;3.22;;;;;;;;;;4971948;28;20039;-72
2021/07/29 05:30:51;;;;;;;4.97;3.30;;;;;;;;;;4969805;28;20090;-71
2021/07/29 05:33:16;;;;;;;7.45;3.55;;;;;;;;;;4970199;28;20038;-71
2021/07/29 05:35:42;;;;;;;7.72;3.60;;;;;;;;;;4969207;28;20057;-72
2021/07/29 05:38:07;;;;;;;7.97;3.67;;;;;;;;;;4972546;28;20512;-72
2021/07/29 05:40:32;;;;;;;5.30;3.03;;;;;;;;;;4973655;28;20443;-72
2021/07/29 05:43:00;;;;;;;5.85;3.13;;;;;;;;;;4971670;28;20053;-71
2021/07/29 05:45:28;;;;;;;6.47;3.30;;;;;;;;;;4970435;28;20431;-73
2021/07/29 05:47:53;;;;;;;4.57;2.78;;;;;;;;;;4951811;28;20062;-71
2021/07/29 05:50:21;;;;;;;5.63;3.00;;;;;;;;;;4977095;28;20046;-72
2021/07/29 05:52:47;;;;;;;5.53;2.75;;;;;;;;;;4975532;28;20035;-72
2021/07/29 05:55:12;;;;;;;7.90;3.13;;;;;;;;;;4974053;28;20518;-72
2021/07/29 05:57:38;;;;;;;7.47;3.00;;;;;;;;;;4975210;28;20364;-72
2021/07/29 06:00:03;;;;;;;8.07;3.22;;;;;;;;;;4970512;28;20031;-72
2021/07/29 06:02:35;;;;;;;4.75;3.05;;;;;;;;;;4970564;28;20337;-72
2021/07/29 06:05:00;;;;;;;5.82;2.90;;;;;;;;;;4953030;28;20355;-72
2021/07/29 06:07:26;;;;;;;4.38;2.85;;;;;;;;;;4956341;28;20206;-72
2021/07/29 06:09:52;;;;;;;4.13;2.70;;;;;;;;;;4955772;28;20046;-72
2021/07/29 06:12:24;;;;;;;6.47;2.90;;;;;;;;;;4970156;28;20042;-73
2021/07/29 06:14:49;;;;;;;5.35;2.88;;;;;;;;;;4955464;28;20516;-72
2021/07/29 06:17:14;;;;;;;4.80;2.95;;;;;;;;;;4956298;28;20105;-72
2021/07/29 06:19:41;;;;;;;5.22;2.90;;;;;;;;;;4976813;28;20687;-72
2021/07/29 06:22:06;;;;;;;5.65;3.28;;;;;;;;;;4974069;28;20035;-72
2021/07/29 06:24:36;;;;;;;5.65;3.17;;;;;;;;;;4970226;28;20097;-72
2021/07/29 06:27:03;;;;;;;5.20;2.92;;;;;;;;;;4976124;28;20034;-70
2021/07/29 06:29:28;;;;;;;6.45;3.28;;;;;;;;;;4955639;28;20046;-73
2021/07/29 06:31:54;;;;;;;6.18;2.95;;;;;;;;;;4937656;28;20069;-72
2021/07/29 06:34:19;;;;;;;4.82;2.80;;;;;;;;;;4973919;28;20062;-73
2021/07/29 06:36:45;;;;;;;4.05;2.70;;;;;;;;;;4973359;28;20027;-71
2021/07/29 06:39:10;;;;;;;3.65;2.53;;;;;;;;;;4973131;28;20117;-72
2021/07/29 06:41:37;;;;;;;5.40;2.85;;;;;;;;;;4958291;28;20451;-72
2021/07/29 06:44:05;;;;;;;4.97;2.80;;;;;;;;;;4975512;28;20030;-73
2021/07/29 06:46:30;;;;;;;3.88;2.50;;;;;;;;;;4940632;28;20038;-72
2021/07/29 06:48:56;;;;;;;5.05;2.65;;;;;;;;;;4929822;28;20118;-70
2021/07/29 06:51:21;;;;;;;4.50;2.70;;;;;;;;;;4936561;28;20037;-69
2021/07/29 06:53:46;;;;;;;4.28;2.60;;;;;;;;;;4966596;28;20073;-69
2021/07/29 06:56:12;;;;;;;5.32;2.55;;;;;;;;;;4950069;28;20133;-68
2021/07/29 06:58:37;;;;;;;7.70;2.60;;;;;;;;;;4970781;28;20126;-69
2021/07/29 07:01:03;;;;;;;6.18;2.88;;;;;;;;;;4951855;28;20393;-68
2021/07/29 07:03:29;;;;;;;5.40;2.60;;;;;;;;;;4953192;28;20066;-70
2021/07/29 07:06:01;;;;;;;4.95;2.55;;;;;;;;;;4969803;28;20186;-68
2021/07/29 07:08:26;;;;;;;4.85;2.80;;;;;;;;;;4952317;28;20046;-69
2021/07/29 07:10:52;;;;;;;8.23;2.70;;;;;;;;;;4953425;28;20038;-68
2021/07/29 07:13:17;;;;;;;4.43;2.80;;;;;;;;;;4955749;28;20161;-67
2021/07/29 07:15:43;;;;;;;4.70;2.97;;;;;;;;;;4938566;28;20035;-68
2021/07/29 07:18:11;;;;;;;3.97;2.42;;;;;;;;;;4970706;28;20498;-68
2021/07/29 07:20:36;;;;;;;4.30;2.30;;;;;;;;;;4974108;28;20035;-70
2021/07/29 07:23:02;;;;;;;8.88;2.60;;;;;;;;;;4969358;28;20033;-68
2021/07/29 07:25:29;;;;;;;4.80;2.47;;;;;;;;;;4969479;28;20041;-68
2021/07/29 07:27:55;;;;;;;4.72;2.60;;;;;;;;;;4968884;28;20539;-68
2021/07/29 07:30:20;;;;;;;4.82;2.53;;;;;;;;;;4967618;28;20035;-69
2021/07/29 07:32:45;;;;;;;6.38;2.72;;;;;;;;;;4969802;28;20062;-69
2021/07/29 07:35:11;;;;;;;4.57;2.42;;;;;;;;;;4970548;28;20034;-68
2021/07/29 07:37:36;;;;;;;4.43;2.58;;;;;;;;;;4969450;28;20082;-68
2021/07/29 07:40:05;;;;;;;5.97;2.50;;;;;;;;;;4969928;28;20490;-68
2021/07/29 07:42:30;;;;;;;5.47;2.60;;;;;;;;;;4974060;28;20027;-69
2021/07/29 07:44:55;;;;;;;4.35;2.40;;;;;;;;;;4971839;28;20408;-69
2021/07/29 07:47:24;;;;;;;4.35;2.50;;;;;;;;;;4969339;28;20045;-69
2021/07/29 07:49:49;;;;;;;5.40;2.28;;;;;;;;;;4969883;28;20037;-69
2021/07/29 07:52:14;;;;;;;4.75;2.67;;;;;;;;;;4970167;28;20042;-70
2021/07/29 07:54:40;;;;;;;5.20;2.40;;;;;;;;;;4972297;28;20434;-68
2021/07/29 07:57:08;;;;;;;5.75;2.55;;;;;;;;;;4973487;28;20121;-69
2021/07/29 07:59:36;;;;;;;4.47;2.50;;;;;;;;;;4972473;28;20038;-69
2021/07/29 08:02:02;;;;;;;6.40;2.50;;;;;;;;;;4967536;28;20022;-69
2021/07/29 08:04:28;;;;;;;4.13;2.50;;;;;;;;;;4970884;28;20049;-68
2021/07/29 08:06:53;;;;;;;5.65;2.55;;;;;;;;;;4950656;28;20227;-68
2021/07/29 08:09:21;;;;;;;4.65;2.72;;;;;;;;;;4972602;28;20026;-68
2021/07/29 08:11:46;;;;;;;4.28;2.50;;;;;;;;;;4952935;28;20034;-70
2021/07/29 08:14:12;;;;;;;5.85;2.45;;;;;;;;;;4952143;28;20046;-68
2021/07/29 08:16:37;;;;;;;5.10;2.60;;;;;;;;;;4968930;28;20027;-70
2021/07/29 08:19:03;;;;;;;4.38;2.50;;;;;;;;;;4970006;28;20057;-68
2021/07/29 08:21:28;;;;;;;6.97;2.67;;;;;;;;;;4970448;28;20038;-68
2021/07/29 08:23:53;;;;;;;4.47;2.63;;;;;;;;;;4969740;28;20035;-71
2021/07/29 08:26:19;;;;;;;4.38;2.55;;;;;;;;;;4970565;28;20341;-69
2021/07/29 08:28:44;;;;;;;4.55;2.50;;;;;;;;;;4971865;28;20037;-69
2021/07/29 08:31:10;;;;;;;6.95;2.63;;;;;;;;;;4969981;28;20100;-68
2021/07/29 08:33:36;;;;;;;4.88;2.50;;;;;;;;;;4969224;28;20030;-68
2021/07/29 08:36:01;;;;;;;6.93;2.58;;;;;;;;;;4967432;28;20092;-68
2021/07/29 08:38:27;;;;;;;6.97;2.30;;;;;;;;;;4934053;28;20038;-70
2021/07/29 08:40:53;;;;;;;5.43;2.60;;;;;;;;;;4967026;28;20113;-67
2021/07/29 08:43:18;;;;;;;4.38;2.60;;;;;;;;;;4968415;28;20033;-69
2021/07/29 08:45:44;;;;;;;4.70;2.70;;;;;;;;;;4954656;28;20047;-69
2021/07/29 08:48:10;;;;;;;4.47;2.40;;;;;;;;;;4969500;28;20026;-68
2021/07/29 08:50:36;;;;;;;5.45;2.70;;;;;;;;;;4970017;28;20042;-68
2021/07/29 08:53:03;;;;;;;5.05;2.63;;;;;;;;;;4968262;28;20480;-69
2021/07/29 08:55:31;;;;;;;4.13;2.42;;;;;;;;;;4970016;28;20053;-68
2021/07/29 08:57:59;;;;;;;8.95;2.80;;;;;;;;;;4968579;28;20027;-69
2021/07/29 09:00:24;;;;;;;5.57;2.40;;;;;;;;;;4968448;28;20523;-70
2021/07/29 09:02:49;;;;;;;6.28;2.80;;;;;;;;;;4952808;28;20118;-69
2021/07/29 09:05:16;;;;;;;6.82;2.90;;;;;;;;;;4969342;28;20046;-69
2021/07/29 09:07:43;;;;;;;5.65;2.97;;;;;;;;;;4969547;28;20046;-69
2021/07/29 09:10:18;;;;;;;4.80;2.75;;;;;;;;;;4967332;28;20104;-68
2021/07/29 09:12:44;;;;;;;6.30;2.50;;;;;;;;;;4968282;28;20346;-69
2021/07/29 09:15:19;;;;;;;8.45;2.78;;;;;;;;;;4968006;28;20040;-68
2021/07/29 09:17:45;;;;;;;6.03;2.80;;;;;;;;;;4951268;28;20038;-69
2021/07/29 09:20:16;;;;;;;6.13;2.70;;;;;;;;;;4967489;28;20041;-69
2021/07/29 09:22:41;;;;;;;5.50;2.42;;;;;;;;;;4967171;28;20496;-68
2021/07/29 09:25:07;;;;;;;5.45;2.72;;;;;;;;;;4967036;28;20397;-68
2021/07/29 09:27:38;;;;;;;4.70;2.40;;;;;;;;;;4966399;28;20026;-69
2021/07/29 09:30:14;;;;;;;6.03;2.83;;;;;;;;;;4971724;28;20096;-68
2021/07/29 09:33:12;;;;;;;5.30;2.53;;;;;;;;;;4969369;28;20564;-67
2021/07/29 09:35:45;;;;;;;4.82;2.78;;;;;;;;;;4955005;28;20097;-67
2021/07/29 09:38:20;;;;;;;6.18;2.90;;;;;;;;;;4966281;28;20030;-68
2021/07/29 09:40:51;;;;;;;4.35;2.50;;;;;;;;;;4966134;28;20039;-68
2021/07/29 09:43:18;;;;;;;6.30;2.88;;;;;;;;;;4950429;28;20072;-68
2021/07/29 09:45:45;;;;;;;5.55;2.58;;;;;;;;;;4969079;28;20074;-68
2021/07/29 09:48:10;;;;;;;5.93;2.67;;;;;;;;;;4966982;28;20035;-69
2021/07/29 09:50:36;;;;;;;4.72;2.65;;;;;;;;;;4967223;28;20039;-68
2021/07/29 09:53:04;;;;;;;5.38;2.70;;;;;;;;;;4970793;28;20065;-68
2021/07/29 09:55:31;;;;;;;5.60;2.65;;;;;;;;;;4958569;28;20034;-69
2021/07/29 09:57:59;;;;;;;5.80;2.70;;;;;;;;;;4970878;28;20582;-68
2021/07/29 10:00:25;;;;;;;6.15;2.85;;;;;;;;;;4974558;28;20073;-69
2021/07/29 10:02:52;;;;;;;6.95;2.78;;;;;;;;;;4946343;28;20161;-69
2021/07/29 10:05:19;;;;;;;5.88;2.60;;;;;;;;;;4950893;28;20058;-68
2021/07/29 10:07:46;;;;;;;5.32;2.88;;;;;;;;;;4969038;28;20427;-69
2021/07/29 10:10:15;;;;;;;4.38;2.53;;;;;;;;;;4951817;28;20050;-69
2021/07/29 10:12:48;;;;;;;4.18;2.60;;;;;;;;;;4970130;28;20054;-68
2021/07/29 10:15:13;;;;;;;5.32;2.90;;;;;;;;;;4949934;28;20053;-68
2021/07/29 10:17:39;;;;;;;4.78;2.90;;;;;;;;;;4966931;28;20030;-69
2021/07/29 10:20:19;;;;;;;7.63;2.70;;;;;;;;;;4969306;28;20114;-67
2021/07/29 10:22:49;;;;;;;4.35;2.55;;;;;;;;;;4970145;28;20030;-68
2021/07/29 10:25:15;;;;;;;4.15;2.45;;;;;;;;;;4970427;28;20039;-68
2021/07/29 10:27:41;;;;;;;4.50;2.47;;;;;;;;;;4972980;28;20379;-67
2021/07/29 10:30:21;;;;;;;4.70;2.67;;;;;;;;;;4971898;28;20029;-67
2021/07/29 10:32:50;;;;;;;5.60;2.60;;;;;;;;;;4959718;28;20407;-71
2021/07/29 10:35:31;;;;;;;5.03;2.97;;;;;;;;;;4951537;28;20149;-69
2021/07/29 10:37:57;;;;;;;6.95;2.70;;;;;;;;;;4954418;28;20117;-70
2021/07/29 10:40:34;;;;;;;4.20;2.60;;;;;;;;;;4922578;28;20034;-69
2021/07/29 10:43:18;;;;;;;5.63;2.92;;;;;;;;;;4944809;28;20030;-69
2021/07/29 10:45:45;;;;;;;;;;;;;;;;;;4955120;28;20035;-71
2021/07/29 10:48:31;;;;;;;4.90;2.60;;;;;;;;;;4951490;28;19968;-69
2021/07/29 10:51:12;;;;;;;6.45;2.90;;;;;;;;;;4954982;28;20102;-70
2021/07/29 10:53:41;;;;;;;5.05;2.88;;;;;;;;;;4952887;28;20312;-71
2021/07/29 10:56:14;;;;;;;4.18;2.67;;;;;;;;;;4926545;28;20050;-71
2021/07/29 10:58:40;;;;;;;5.97;2.85;;;;;;;;;;4955630;28;20439;-72
2021/07/29 11:01:06;;;;;;;4.72;2.83;;;;;;;;;;4950617;28;20084;-71
2021/07/29 11:03:32;;;;;;;5.45;2.90;;;;;;;;;;4955929;28;20035;-72
2021/07/29 11:06:06;;;;;;;5.80;2.87;;;;;;;;;;4938979;28;20038;-72
2021/07/29 11:08:31;;;;;;;5.82;3.03;;;;;;;;;;4954003;28;20504;-72
2021/07/29 11:10:58;;;;;;;7.88;2.80;;;;;;;;;;4956833;28;20058;-71
2021/07/29 11:13:24;;;;;;;4.57;2.80;;;;;;;;;;4934575;28;20073;-73
2021/07/29 11:15:50;;;;;;;6.85;3.03;;;;;;;;;;4957036;28;20134;-71
2021/07/29 11:18:17;;;;;;;5.97;2.90;;;;;;;;;;4950207;28;20046;-71
2021/07/29 11:20:46;;;;;;;6.25;2.83;;;;;;;;;;4966921;28;20491;-71
2021/07/29 11:23:13;;;;;;;4.68;2.97;;;;;;;;;;4967779;28;20034;-71
2021/07/29 11:25:58;;;;;;;5.82;3.20;;;;;;;;;;4970944;28;20038;-71
2021/07/29 11:28:24;;;;;;;5.15;2.90;;;;;;;;;;4961932;28;20399;-68
2021/07/29 11:30:50;;;;;;;5.13;2.93;;;;;;;;;;4961669;28;20022;-69
2021/07/29 11:33:19;;;;;;;6.23;2.97;;;;;;;;;;4950641;28;20054;-69
2021/07/29 11:35:44;;;;;;;5.85;3.13;;;;;;;;;;4919035;28;20740;-68
2021/07/29 11:38:14;;;;;;;4.33;2.80;;;;;;;;;;4970652;28;20029;-68
2021/07/29 11:40:40;;;;;;;6.60;2.88;;;;;;;;;;4967510;28;20037;-68
2021/07/29 11:43:19;;;;;;;4.47;2.77;;;;;;;;;;4969230;28;20026;-68
2021/07/29 11:45:44;;;;;;;5.00;3.00;;;;;;;;;;4940083;28;20567;-68
2021/07/29 11:48:22;;;;;;;5.07;2.87;;;;;;;;;;4939855;28;20058;-69
2021/07/29 11:50:49;;;;;;;6.07;2.97;;;;;;;;;;4949524;28;20094;-68
2021/07/29 11:53:14;;;;;;;4.43;2.88;;;;;;;;;;4954203;28;20031;-68
2021/07/29 11:55:40;;;;;;;6.73;2.83;;;;;;;;;;4970637;28;20034;-69
2021/07/29 11:58:13;;;;;;;5.95;3.25;;;;;;;;;;4972303;28;20023;-68
2021/07/29 12:00:39;;;;;;;6.93;3.20;;;;;;;;;;4967479;28;20519;-69
2021/07/29 12:03:05;;;;;;;4.60;2.90;;;;;;;;;;4966615;28;20124;-67
2021/07/29 12:05:31;;;;;;;4.97;3.00;;;;;;;;;;4968688;28;20042;-68
2021/07/29 12:07:56;;;;;;;5.88;3.13;;;;;;;;;;4970961;28;20030;-68
2021/07/29 12:10:27;;;;;;;7.17;3.27;;;;;;;;;;4954003;28;20460;-68
2021/07/29 12:12:53;;;;;;;4.57;2.72;;;;;;;;;;4968856;28;20031;-69
2021/07/29 12:15:21;;;;;;;5.40;3.25;;;;;;;;;;4967477;28;20038;-68
2021/07/29 12:17:46;;;;;;;6.40;3.00;;;;;;;;;;4969362;28;20073;-68
2021/07/29 12:20:14;;;;;;;5.93;2.90;;;;;;;;;;4950963;28;20042;-67
2021/07/29 12:22:42;;;;;;;5.20;2.90;;;;;;;;;;4967208;28;20531;-67
2021/07/29 12:25:09;;;;;;;5.18;2.92;;;;;;;;;;4967489;28;20035;-67
2021/07/29 12:27:44;;;;;;;5.03;2.90;;;;;;;;;;4968303;28;20030;-68
2021/07/29 12:30:29;;;;;;;6.55;3.25;;;;;;;;;;4967694;28;20026;-68
2021/07/29 12:33:06;;;;;;;8.35;3.10;;;;;;;;;;4937647;28;20393;-68
2021/07/29 12:35:32;;;;;;;5.18;2.80;;;;;;;;;;4969305;28;20066;-68
2021/07/29 12:37:57;;;;;;;6.33;3.07;;;;;;;;;;4968606;28;20572;-68
2021/07/29 12:40:24;;;;;;;5.63;3.10;;;;;;;;;;4942101;28;20152;-68
2021/07/29 12:42:49;;;;;;;5.43;2.92;;;;;;;;;;4949166;28;20104;-68
2021/07/29 12:45:15;;;;;;;5.33;3.20;;;;;;;;;;4923633;28;20047;-68
2021/07/29 12:47:41;;;;;;;5.20;2.77;;;;;;;;;;4952529;28;20071;-68
2021/07/29 12:50:07;;;;;;;5.47;2.75;;;;;;;;;;4949091;28;20027;-67
2021/07/29 12:52:32;;;;;;;5.15;2.80;;;;;;;;;;4950530;28;20471;-67
2021/07/29 12:54:59;;;;;;;4.40;2.60;;;;;;;;;;4947226;28;20100;-68
2021/07/29 12:57:24;;;;;;;5.10;2.72;;;;;;;;;;4956351;28;20722;-68
2021/07/29 12:59:49;;;;;;;5.13;3.17;;;;;;;;;;4967526;28;20701;-71
2021/07/29 13:02:15;;;;;;;4.50;2.70;;;;;;;;;;4949498;28;20043;-71
2021/07/29 13:04:40;;;;;;;4.33;2.77;;;;;;;;;;4969785;28;20042;-72
2021/07/29 13:07:05;;;;;;;4.47;2.70;;;;;;;;;;4951019;28;20030;-71
2021/07/29 13:09:31;;;;;;;4.30;2.80;;;;;;;;;;4967477;28;20038;-70
2021/07/29 13:11:59;;;;;;;5.83;2.90;;;;;;;;;;4951429;28;20138;-70
2021/07/29 13:14:24;;;;;;;5.05;2.38;;;;;;;;;;4951554;28;20484;-70
2021/07/29 13:16:50;;;;;;;5.47;3.00;;;;;;;;;;4967201;28;20149;-70
2021/07/29 13:19:15;;;;;;;5.17;2.87;;;;;;;;;;4969993;28;20480;-71
2021/07/29 13:21:41;;;;;;;4.50;2.90;;;;;;;;;;4949542;28;20403;-72
2021/07/29 13:24:06;;;;;;;4.63;2.87;;;;;;;;;;4967670;28;20030;-71
2021/07/29 13:26:31;;;;;;;6.90;2.80;;;;;;;;;;4972143;28;20053;-70
2021/07/29 13:28:57;;;;;;;4.37;2.70;;;;;;;;;;4968529;28;20030;-71
2021/07/29 13:31:23;;;;;;;5.00;2.75;;;;;;;;;;4968645;28;20060;-71
2021/07/29 13:33:48;;;;;;;5.57;3.20;;;;;;;;;;4955389;28;20507;-70
2021/07/29 13:36:13;;;;;;;5.83;2.80;;;;;;;;;;4948752;28;20081;-69
2021/07/29 13:38:39;;;;;;;6.00;2.87;;;;;;;;;;4969547;28;20108;-72
2021/07/29 13:41:04;;;;;;;4.77;2.80;;;;;;;;;;4971532;28;20030;-70
2021/07/29 13:43:31;;;;;;;4.13;2.47;;;;;;;;;;4969275;28;20257;-71
2021/07/29 13:45:56;;;;;;;5.78;2.95;;;;;;;;;;4970303;28;20326;-70
2021/07/29 13:48:22;;;;;;;5.13;2.83;;;;;;;;;;4954180;28;20491;-71
2021/07/29 13:50:47;;;;;;;4.70;2.73;;;;;;;;;;4968914;28;20023;-71
2021/07/29 13:53:12;;;;;;;6.87;3.00;;;;;;;;;;4969863;28;20038;-71
2021/07/29 13:55:38;;;;;;;4.90;2.77;;;;;;;;;;4969219;28;20093;-71
2021/07/29 13:58:03;;;;;;;4.77;2.70;;;;;;;;;;4952415;28;20022;-70
2021/07/29 14:00:29;;;;;;;4.37;2.70;;;;;;;;;;4975305;28;20054;-71
2021/07/29 14:02:54;;;;;;;5.00;2.73;;;;;;;;;;4964016;28;20256;-73
2021/07/29 14:05:20;;;;;;;6.00;2.83;;;;;;;;;;4969249;28;20039;-71
2021/07/29 14:07:46;;;;;;;6.97;2.80;;;;;;;;;;4969603;28;20035;-70
2021/07/29 14:10:12;;;;;;;5.07;2.83;;;;;;;;;;4970598;28;20057;-71
2021/07/29 14:12:38;;;;;;;4.88;2.95;;;;;;;;;;4950906;28;20361;-71
2021/07/29 14:15:04;;;;;;;5.47;2.80;;;;;;;;;;4967534;28;20133;-71
2021/07/29 14:17:37;;;;;;;5.90;2.50;;;;;;;;;;4967329;28;20480;-71
2021/07/29 14:20:25;;;;;;;4.45;2.83;;;;;;;;;;4966042;28;20392;-71
2021/07/29 14:22:58;;;;;;;5.47;3.20;;;;;;;;;;4966107;28;20066;-72
2021/07/29 14:25:26;;;;;;;6.22;2.85;;;;;;;;;;4967585;28;20039;-72
2021/07/29 14:27:52;;;;;;;6.22;3.22;;;;;;;;;;4960017;28;20031;-72
2021/07/29 14:30:18;;;;;;;5.10;2.83;;;;;;;;;;4963500;28;20677;-72
2021/07/29 14:32:43;;;;;;;6.72;2.97;;;;;;;;;;4951700;28;20051;-73
2021/07/29 14:35:09;;;;;;;4.90;2.85;;;;;;;;;;4948567;28;20106;-74
2021/07/29 14:37:37;;;;;;;5.10;2.70;;;;;;;;;;4949357;28;20113;-74
2021/07/29 14:40:03;;;;;;;4.10;2.70;;;;;;;;;;4975126;28;20101;-73
2021/07/29 14:42:30;;;;;;;6.57;3.00;;;;;;;;;;4974594;28;20403;-73